createdAt,value
2022-09-12T00:01:38.245Z,6.97
2022-09-12T00:04:07.122Z,6.95
2022-09-12T00:06:38.057Z,5.35
2022-09-12T00:09:09.196Z,5.22
2022-09-12T00:11:38.271Z,5.45
2022-09-12T00:14:09.918Z,5.43
2022-09-12T00:16:40.075Z,5.75
2022-09-12T00:19:10.130Z,6.70
2022-09-12T00:21:41.427Z,5.80
2022-09-12T00:24:10.565Z,5.30
2022-09-12T00:26:39.767Z,4.88
2022-09-12T00:29:09.693Z,5.10
2022-09-12T00:31:38.705Z,4.72
2022-09-12T00:34:07.105Z,5.10
2022-09-12T00:36:35.651Z,4.97
2022-09-12T00:39:05.306Z,5.90
2022-09-12T00:41:36.641Z,5.53
2022-09-12T00:44:51.008Z,4.55
2022-09-12T00:47:24.327Z,5.15
2022-09-12T00:49:59.519Z,4.95
2022-09-12T00:52:32.756Z,4.55
2022-09-12T00:55:07.038Z,5.47
2022-09-12T00:57:38.831Z,5.22
2022-09-12T01:00:14.881Z,4.85
2022-09-12T01:02:45.514Z,4.70
2022-09-12T01:05:15.273Z,4.35
2022-09-12T01:07:44.993Z,4.55
2022-09-12T01:10:13.323Z,5.18
2022-09-12T01:12:44.367Z,4.53
2022-09-12T01:15:14.652Z,4.95
2022-09-12T01:18:00.099Z,5.35
2022-09-12T01:20:41.379Z,5.53
2022-09-12T01:23:47.530Z,6.22
2022-09-12T01:26:32.905Z,7.05
2022-09-12T01:29:21.187Z,6.60
2022-09-12T01:31:58.377Z,6.75
2022-09-12T01:34:32.753Z,7.22
2022-09-12T01:37:12.444Z,9.68
2022-09-12T01:39:51.584Z,7.03
2022-09-12T01:42:27.998Z,6.88
2022-09-12T01:45:05.172Z,6.72
2022-09-12T01:47:41.358Z,6.95
2022-09-12T01:50:15.276Z,7.50
2022-09-12T01:52:50.150Z,8.82
2022-09-12T01:55:22.866Z,7.97
2022-09-12T01:57:56.453Z,9.07
2022-09-12T02:00:25.234Z,8.35
2022-09-12T02:03:03.526Z,7.85
2022-09-12T02:05:36.014Z,7.82
2022-09-12T02:08:09.143Z,10.35
2022-09-12T02:10:44.874Z,9.15
2022-09-12T02:13:18.874Z,8.57
2022-09-12T02:15:51.596Z,7.75
2022-09-12T02:18:22.899Z,7.43
2022-09-12T02:20:53.083Z,7.15
2022-09-12T02:23:24.669Z,7.90
2022-09-12T02:25:58.009Z,8.80
2022-09-12T02:28:30.606Z,9.98
2022-09-12T02:31:06.831Z,10.00
2022-09-12T02:33:44.995Z,9.77
2022-09-12T02:36:23.898Z,9.75
2022-09-12T02:38:53.135Z,8.10
2022-09-12T02:41:22.512Z,9.60
2022-09-12T02:43:53.906Z,11.00
2022-09-12T02:46:26.849Z,10.02
2022-09-12T02:48:58.463Z,10.98
2022-09-12T02:51:27.907Z,11.95
2022-09-12T02:53:57.011Z,9.75
2022-09-12T02:56:29.122Z,10.02
2022-09-12T02:59:03.614Z,10.85
2022-09-12T03:01:50.621Z,8.98
2022-09-12T03:04:38.666Z,11.02
2022-09-12T03:07:15.038Z,9.52
2022-09-12T03:09:49.543Z,9.75
2022-09-12T03:12:29.503Z,8.45
2022-09-12T03:15:13.541Z,8.40
2022-09-12T03:17:54.181Z,7.93
2022-09-12T03:20:36.986Z,7.50
2022-09-12T03:23:12.219Z,9.10
2022-09-12T03:25:46.787Z,7.95
2022-09-12T03:28:17.561Z,8.07
2022-09-12T03:30:48.658Z,7.05
2022-09-12T03:33:19.526Z,7.38
2022-09-12T03:35:50.589Z,7.97
2022-09-12T03:38:19.725Z,7.28
2022-09-12T03:40:52.730Z,7.75
2022-09-12T03:43:23.670Z,7.80
2022-09-12T03:45:53.664Z,8.50
2022-09-12T03:48:22.371Z,7.90
2022-09-12T03:50:52.446Z,7.30
2022-09-12T03:53:20.737Z,7.65
2022-09-12T03:55:49.788Z,7.55
2022-09-12T03:58:18.499Z,8.02
2022-09-12T04:00:47.037Z,7.03
2022-09-12T04:03:16.079Z,7.57
2022-09-12T04:05:44.361Z,7.03
2022-09-12T04:08:14.463Z,7.47
2022-09-12T04:10:42.834Z,7.38
2022-09-12T04:13:11.163Z,6.50
2022-09-12T04:15:39.810Z,6.35
2022-09-12T04:18:08.866Z,6.90
2022-09-12T04:20:37.531Z,7.63
2022-09-12T04:23:06.600Z,8.40
2022-09-12T04:25:36.630Z,8.38
2022-09-12T04:28:05.417Z,9.10
2022-09-12T04:30:35.588Z,8.20
2022-09-12T04:33:07.978Z,6.57
2022-09-12T04:35:37.734Z,7.32
2022-09-12T04:38:06.395Z,7.00
2022-09-12T04:40:36.297Z,7.22
2022-09-12T04:43:10.126Z,7.45
2022-09-12T04:45:40.831Z,7.35
2022-09-12T04:48:09.995Z,7.10
2022-09-12T04:50:38.834Z,6.10
2022-09-12T04:53:07.192Z,6.70
2022-09-12T04:55:37.731Z,6.75
2022-09-12T04:58:06.517Z,5.93
2022-09-12T05:00:35.526Z,6.47
2022-09-12T05:03:04.230Z,5.75
2022-09-12T05:05:32.995Z,6.60
2022-09-12T05:08:01.278Z,6.72
2022-09-12T05:10:30.434Z,5.38
2022-09-12T05:13:00.110Z,5.22
2022-09-12T05:15:30.432Z,5.63
2022-09-12T05:17:59.177Z,4.90
2022-09-12T05:20:27.871Z,4.80
2022-09-12T05:22:56.323Z,5.10
2022-09-12T05:25:24.630Z,4.75
2022-09-12T05:27:54.090Z,5.35
2022-09-12T05:30:23.759Z,4.85
2022-09-12T05:32:52.963Z,4.70
2022-09-12T05:35:21.243Z,4.82
2022-09-12T05:37:49.530Z,4.78
2022-09-12T05:40:19.355Z,4.40
2022-09-12T05:42:47.991Z,4.80
2022-09-12T05:45:17.155Z,4.72
2022-09-12T05:47:49.253Z,4.47
2022-09-12T05:50:17.782Z,5.07
2022-09-12T05:52:46.490Z,4.68
2022-09-12T05:55:14.778Z,3.90
2022-09-12T05:57:46.202Z,4.40
2022-09-12T06:00:15.898Z,4.22
2022-09-12T06:02:46.068Z,4.78
2022-09-12T06:05:15.967Z,5.55
2022-09-12T06:07:46.741Z,4.28
2022-09-12T06:10:16.373Z,4.28
2022-09-12T06:12:44.730Z,4.63
2022-09-12T06:15:14.393Z,4.43
2022-09-12T06:17:42.672Z,4.43
2022-09-12T06:20:11.177Z,4.80
2022-09-12T06:22:41.503Z,4.60
2022-09-12T06:25:09.977Z,5.22
2022-09-12T06:27:38.303Z,4.45
2022-09-12T06:30:08.323Z,5.38
2022-09-12T06:32:36.663Z,4.75
2022-09-12T06:35:05.995Z,5.30
2022-09-12T06:37:34.847Z,4.25
2022-09-12T06:40:04.940Z,4.72
2022-09-12T06:42:34.440Z,5.22
2022-09-12T06:45:02.744Z,5.30
2022-09-12T06:47:31.925Z,5.47
2022-09-12T06:50:00.184Z,4.50
2022-09-12T06:52:29.503Z,4.68
2022-09-12T06:54:57.827Z,4.80
2022-09-12T06:57:30.367Z,4.72
2022-09-12T06:59:59.800Z,4.30
2022-09-12T07:02:28.119Z,5.10
2022-09-12T07:04:57.005Z,5.20
2022-09-12T07:07:25.872Z,4.80
2022-09-12T07:09:54.151Z,6.60
2022-09-12T07:12:22.487Z,4.93
2022-09-12T07:14:52.088Z,4.75
2022-09-12T07:17:20.712Z,6.35
2022-09-12T07:19:49.365Z,6.68
2022-09-12T07:22:17.637Z,7.07
2022-09-12T07:24:47.902Z,6.60
2022-09-12T07:27:16.363Z,5.93
2022-09-12T07:29:47.061Z,5.45
2022-09-12T07:32:16.665Z,5.10
2022-09-12T07:34:46.510Z,5.80
2022-09-12T07:37:14.786Z,6.18
2022-09-12T07:39:43.794Z,6.15
2022-09-12T07:42:12.735Z,6.20
2022-09-12T07:44:41.302Z,6.28
2022-09-12T07:47:09.630Z,5.72
2022-09-12T07:49:39.236Z,6.18
2022-09-12T07:52:08.810Z,6.88
2022-09-12T07:54:37.402Z,7.53
2022-09-12T07:57:06.096Z,6.28
2022-09-12T07:59:52.016Z,6.43
2022-09-12T08:02:22.503Z,6.28
2022-09-12T08:04:53.022Z,6.15
2022-09-12T08:07:21.381Z,6.25
2022-09-12T08:09:49.846Z,6.47
2022-09-12T08:12:20.231Z,5.70
2022-09-12T08:14:49.681Z,5.50
2022-09-12T08:17:18.503Z,6.28
2022-09-12T08:19:47.549Z,5.25
2022-09-12T08:22:19.028Z,6.30
2022-09-12T08:24:47.349Z,5.30
2022-09-12T08:27:17.034Z,5.55
2022-09-12T08:29:45.446Z,6.20
2022-09-12T08:32:14.447Z,5.55
2022-09-12T08:34:42.725Z,5.50
2022-09-12T08:37:11.394Z,5.40
2022-09-12T08:39:42.237Z,5.78
2022-09-12T08:42:13.797Z,6.25
2022-09-12T08:45:02.774Z,6.97
2022-09-12T08:47:35.168Z,6.13
2022-09-12T08:50:11.859Z,5.95
2022-09-12T08:52:45.258Z,6.30
2022-09-12T08:55:26.531Z,5.88
2022-09-12T08:57:55.994Z,5.28
2022-09-12T09:00:24.465Z,7.22
2022-09-12T09:03:34.379Z,5.68
2022-09-12T09:06:09.465Z,5.82
2022-09-12T09:08:51.363Z,6.43
2022-09-12T09:11:36.007Z,5.43
2022-09-12T09:14:37.639Z,5.43
2022-09-12T09:17:11.941Z,5.68
2022-09-12T09:19:50.853Z,5.50
2022-09-12T09:22:27.869Z,6.07
2022-09-12T09:25:03.537Z,6.05
2022-09-12T09:27:40.793Z,5.70
2022-09-12T09:30:15.823Z,5.38
2022-09-12T09:32:47.931Z,5.03
2022-09-12T09:35:20.420Z,4.53
2022-09-12T09:38:01.622Z,4.53
2022-09-12T09:40:44.603Z,4.85
2022-09-12T09:43:22.850Z,4.32
2022-09-12T09:45:53.303Z,3.70
2022-09-12T09:48:25.003Z,4.60
2022-09-12T09:50:54.029Z,5.32
2022-09-12T09:53:36.562Z,5.15
2022-09-12T09:56:12.139Z,4.70
2022-09-12T09:58:42.341Z,4.25
2022-09-12T10:01:16.989Z,4.55
2022-09-12T10:03:51.847Z,4.75
2022-09-12T10:06:32.921Z,4.55
2022-09-12T10:09:23.250Z,4.22
2022-09-12T10:11:56.032Z,3.58
2022-09-12T10:14:36.736Z,4.10
2022-09-12T10:17:25.151Z,3.90
2022-09-12T10:20:10.890Z,3.42
2022-09-12T10:22:48.495Z,3.95
2022-09-12T10:25:21.086Z,3.50
2022-09-12T10:27:55.154Z,3.05
2022-09-12T10:30:28.758Z,3.72
2022-09-12T10:33:06.441Z,4.07
2022-09-12T10:35:46.654Z,3.42
2022-09-12T10:38:22.805Z,3.90
2022-09-12T10:40:59.315Z,3.22
2022-09-12T10:43:30.974Z,3.10
2022-09-12T10:46:21.948Z,2.97
2022-09-12T10:48:51.930Z,4.13
2022-09-12T10:51:28.782Z,3.20
2022-09-12T10:54:00.707Z,3.47
2022-09-12T10:56:32.578Z,3.25
2022-09-12T10:59:19.812Z,3.40
2022-09-12T11:01:54.002Z,3.25
2022-09-12T11:04:32.799Z,3.30
2022-09-12T11:07:22.049Z,2.88
2022-09-12T11:09:57.285Z,3.65
2022-09-12T11:12:37.546Z,3.30
2022-09-12T11:15:27.015Z,3.05
2022-09-12T11:18:02.139Z,3.13
2022-09-12T11:20:44.454Z,3.33
2022-09-12T11:23:48.957Z,3.42
2022-09-12T11:26:32.681Z,2.95
2022-09-12T11:29:14.226Z,2.67
2022-09-12T11:32:00.604Z,2.67
2022-09-12T11:34:42.864Z,3.15
2022-09-12T11:37:34.107Z,2.95
2022-09-12T11:40:19.356Z,3.03
2022-09-12T11:42:52.853Z,2.47
2022-09-12T11:45:28.958Z,2.80
2022-09-12T11:48:05.272Z,2.65
2022-09-12T11:50:35.426Z,2.33
2022-09-12T11:53:12.401Z,2.50
2022-09-12T11:55:51.725Z,2.35
2022-09-12T11:58:23.573Z,2.72
2022-09-12T12:00:57.093Z,2.38
2022-09-12T12:03:32.799Z,2.28
2022-09-12T12:06:07.988Z,2.25
2022-09-12T12:08:40.929Z,2.38
2022-09-12T12:11:11.054Z,2.22
2022-09-12T12:13:46.537Z,2.35
2022-09-12T12:16:22.373Z,2.20
2022-09-12T12:18:56.158Z,2.13
2022-09-12T12:21:41.127Z,2.35
2022-09-12T12:24:20.933Z,2.47
2022-09-12T12:26:59.015Z,3.10
2022-09-12T12:29:43.420Z,2.55
2022-09-12T12:32:36.842Z,2.58
2022-09-12T12:35:40.029Z,2.25
2022-09-12T12:38:30.985Z,2.33
2022-09-12T12:41:36.184Z,2.35
2022-09-12T12:44:51.421Z,2.42
2022-09-12T12:47:23.141Z,2.00
2022-09-12T12:49:54.373Z,2.50
2022-09-12T12:52:23.238Z,2.08
2022-09-12T12:54:56.358Z,2.28
2022-09-12T12:57:33.256Z,2.17
2022-09-12T13:00:08.793Z,2.25
2022-09-12T13:02:41.356Z,3.63
2022-09-12T13:05:20.406Z,4.00
2022-09-12T13:07:56.163Z,3.13
2022-09-12T13:10:28.824Z,3.42
2022-09-12T13:13:03.759Z,3.35
2022-09-12T13:15:54.138Z,3.55
2022-09-12T13:18:28.665Z,3.40
2022-09-12T13:21:08.720Z,2.90
2022-09-12T13:23:37.994Z,3.42
2022-09-12T13:26:12.185Z,3.03
2022-09-12T13:28:40.876Z,3.33
2022-09-12T13:31:19.447Z,2.92
2022-09-12T13:33:51.752Z,3.00
2022-09-12T13:36:44.322Z,3.38
2022-09-12T13:39:18.720Z,3.03
2022-09-12T13:42:04.174Z,2.80
2022-09-12T13:44:40.891Z,3.88
2022-09-12T13:47:16.141Z,3.03
2022-09-12T13:49:46.665Z,2.70
2022-09-12T13:52:20.090Z,3.20
2022-09-12T13:54:51.679Z,3.20
2022-09-12T13:57:36.183Z,2.95
2022-09-12T14:00:08.767Z,2.70
2022-09-12T14:02:41.480Z,2.83
2022-09-12T14:05:14.985Z,2.90
2022-09-12T14:07:55.065Z,3.25
2022-09-12T14:10:32.201Z,2.95
2022-09-12T14:13:02.345Z,2.53
2022-09-12T14:15:33.719Z,2.67
2022-09-12T14:18:06.738Z,2.72
2022-09-12T14:20:39.663Z,2.55
2022-09-12T14:23:18.950Z,3.15
2022-09-12T14:25:49.097Z,3.00
2022-09-12T14:28:23.596Z,2.97
2022-09-12T14:31:00.782Z,2.72
2022-09-12T14:33:34.340Z,3.15
2022-09-12T14:36:13.141Z,2.65
2022-09-12T14:38:44.263Z,2.63
2022-09-12T14:41:15.350Z,2.75
2022-09-12T14:43:47.612Z,2.60
2022-09-12T14:46:20.807Z,3.40
2022-09-12T14:48:54.834Z,3.00
2022-09-12T14:51:27.854Z,3.40
2022-09-12T14:53:56.218Z,2.78
2022-09-12T14:56:40.715Z,2.63
2022-09-12T14:59:31.050Z,2.67
2022-09-12T15:02:26.862Z,2.97
2022-09-12T15:05:17.958Z,3.00
2022-09-12T15:07:55.086Z,2.80
2022-09-12T15:10:27.588Z,2.75
2022-09-12T15:13:15.552Z,2.85
2022-09-12T15:15:47.069Z,2.60
2022-09-12T15:18:16.258Z,3.00
2022-09-12T15:20:48.546Z,2.83
2022-09-12T15:23:21.513Z,2.65
2022-09-12T15:25:50.590Z,2.70
2022-09-12T15:28:21.542Z,3.08
2022-09-12T15:30:52.873Z,2.88
2022-09-12T15:33:24.110Z,3.00
2022-09-12T15:35:54.851Z,3.22
2022-09-12T15:38:26.598Z,2.78
2022-09-12T15:40:55.809Z,3.28
2022-09-12T15:43:26.565Z,3.05
2022-09-12T15:45:54.968Z,3.00
2022-09-12T15:48:24.793Z,2.67
2022-09-12T15:50:55.742Z,2.70
2022-09-12T15:53:24.810Z,2.80
2022-09-12T15:55:53.098Z,3.53
2022-09-12T15:58:21.864Z,3.10
2022-09-12T16:00:50.189Z,3.00
2022-09-12T16:03:25.570Z,3.33
2022-09-12T16:05:57.995Z,3.47
2022-09-12T16:08:27.206Z,3.75
2022-09-12T16:10:57.942Z,3.05
2022-09-12T16:13:27.871Z,3.40
2022-09-12T16:15:58.708Z,2.97
2022-09-12T16:18:27.267Z,3.90
2022-09-12T16:20:58.289Z,3.75
2022-09-12T16:23:27.029Z,3.40
2022-09-12T16:25:58.974Z,3.65
2022-09-12T16:28:28.084Z,3.05
2022-09-12T16:30:57.593Z,3.85
2022-09-12T16:33:27.365Z,4.32
2022-09-12T16:36:03.888Z,4.20
2022-09-12T16:38:34.079Z,4.20
2022-09-12T16:41:02.896Z,3.67
2022-09-12T16:43:31.795Z,3.60
2022-09-12T16:46:04.781Z,4.40
2022-09-12T16:48:34.172Z,4.47
2022-09-12T16:51:07.273Z,3.58
2022-09-12T16:53:38.196Z,4.00
2022-09-12T16:56:07.301Z,3.50
2022-09-12T16:58:41.815Z,3.95
2022-09-12T17:01:12.598Z,3.92
2022-09-12T17:03:41.874Z,3.78
2022-09-12T17:06:13.713Z,3.88
2022-09-12T17:08:45.568Z,3.55
2022-09-12T17:11:16.010Z,3.70
2022-09-12T17:14:03.925Z,3.85
2022-09-12T17:16:34.575Z,3.72
2022-09-12T17:19:02.934Z,3.40
2022-09-12T17:21:34.054Z,4.40
2022-09-12T17:24:03.320Z,3.65
2022-09-12T17:26:32.646Z,4.00
2022-09-12T17:29:01.469Z,3.70
2022-09-12T17:31:31.738Z,4.10
2022-09-12T17:34:01.433Z,3.95
2022-09-12T17:36:32.142Z,4.00
2022-09-12T17:39:03.840Z,3.65
2022-09-12T17:41:34.098Z,4.15
2022-09-12T17:44:03.407Z,4.40
2022-09-12T17:46:35.427Z,4.47
2022-09-12T17:49:05.793Z,3.90
2022-09-12T17:51:35.162Z,4.20
2022-09-12T17:54:08.661Z,4.32
2022-09-12T17:56:38.008Z,4.13
2022-09-12T17:59:08.914Z,4.57
2022-09-12T18:01:54.746Z,4.07
2022-09-12T18:04:24.037Z,4.22
2022-09-12T18:06:52.812Z,3.97
2022-09-12T18:09:25.521Z,4.15
2022-09-12T18:11:54.290Z,4.40
2022-09-12T18:14:23.614Z,3.80
2022-09-12T18:16:52.452Z,4.13
2022-09-12T18:19:23.274Z,4.50
2022-09-12T18:21:51.650Z,4.70
2022-09-12T18:24:20.158Z,4.85
2022-09-12T18:26:50.894Z,4.05
2022-09-12T18:29:20.591Z,4.40
2022-09-12T18:31:48.932Z,4.78
2022-09-12T18:34:18.679Z,5.13
2022-09-12T18:36:49.305Z,4.68
2022-09-12T18:39:18.997Z,5.20
2022-09-12T18:41:47.736Z,4.50
2022-09-12T18:44:17.604Z,4.40
2022-09-12T18:46:46.104Z,4.28
2022-09-12T18:49:14.478Z,4.55
2022-09-12T18:51:43.343Z,4.13
2022-09-12T18:54:15.251Z,4.65
2022-09-12T18:56:45.634Z,4.30
2022-09-12T18:59:14.919Z,5.07
2022-09-12T19:01:45.358Z,4.90
2022-09-12T19:04:16.273Z,4.90
2022-09-12T19:06:46.626Z,5.47
2022-09-12T19:09:18.300Z,4.72
2022-09-12T19:11:50.066Z,4.97
2022-09-12T19:14:22.986Z,4.80
2022-09-12T19:16:52.836Z,4.65
2022-09-12T19:19:22.333Z,5.38
2022-09-12T19:21:50.664Z,5.97
2022-09-12T19:24:19.314Z,5.47
2022-09-12T19:26:48.731Z,5.45
2022-09-12T19:29:18.173Z,4.93
2022-09-12T19:31:46.846Z,6.72
2022-09-12T19:34:17.555Z,5.80
2022-09-12T19:36:47.281Z,5.72
2022-09-12T19:39:17.137Z,5.10
2022-09-12T19:41:46.097Z,5.50
2022-09-12T19:44:14.706Z,5.53
2022-09-12T19:46:43.793Z,5.88
2022-09-12T19:49:12.836Z,6.50
2022-09-12T19:51:44.386Z,5.82
2022-09-12T19:54:12.722Z,5.25
2022-09-12T19:56:40.997Z,5.18
2022-09-12T19:59:10.321Z,4.93
2022-09-12T20:01:38.813Z,5.53
2022-09-12T20:04:08.330Z,5.50
2022-09-12T20:06:36.747Z,6.70
2022-09-12T20:09:06.673Z,6.00
2022-09-12T20:11:35.375Z,6.55
2022-09-12T20:14:04.642Z,7.20
2022-09-12T20:16:33.790Z,6.47
2022-09-12T20:19:03.890Z,6.30
2022-09-12T20:21:34.089Z,6.20
2022-09-12T20:24:04.108Z,6.45
2022-09-12T20:26:34.346Z,6.88
2022-09-12T20:29:03.308Z,6.78
2022-09-12T20:31:32.116Z,6.82
2022-09-12T20:34:00.720Z,6.30
2022-09-12T20:36:29.552Z,5.75
2022-09-12T20:39:01.162Z,6.13
2022-09-12T20:41:32.510Z,6.10
2022-09-12T20:44:02.254Z,6.20
2022-09-12T20:46:31.194Z,6.57
2022-09-12T20:48:59.553Z,5.43
2022-09-12T20:51:29.579Z,5.57
2022-09-12T20:53:59.703Z,6.22
2022-09-12T20:56:29.810Z,5.65
2022-09-12T20:58:59.201Z,5.93
2022-09-12T21:01:30.083Z,6.00
2022-09-12T21:04:00.342Z,5.97
2022-09-12T21:06:29.179Z,6.15
2022-09-12T21:09:00.438Z,6.75
2022-09-12T21:11:29.454Z,5.80
2022-09-12T21:13:58.613Z,6.38
2022-09-12T21:16:28.988Z,6.28
2022-09-12T21:18:59.366Z,5.75
2022-09-12T21:21:28.611Z,5.45
2022-09-12T21:23:59.469Z,5.93
2022-09-12T21:26:28.689Z,5.43
2022-09-12T21:28:57.424Z,6.03
2022-09-12T21:31:28.359Z,5.47
2022-09-12T21:33:56.717Z,5.40
2022-09-12T21:36:25.807Z,5.85
2022-09-12T21:38:54.276Z,5.13
2022-09-12T21:41:22.577Z,5.47
2022-09-12T21:43:51.294Z,5.78
2022-09-12T21:46:20.045Z,5.75
2022-09-12T21:48:49.775Z,5.63
2022-09-12T21:51:18.574Z,5.10
2022-09-12T21:53:47.601Z,5.13
2022-09-12T21:56:15.953Z,4.82
2022-09-12T21:58:45.069Z,5.70
2022-09-12T22:01:13.736Z,5.55
2022-09-12T22:03:45.304Z,5.97
2022-09-12T22:06:17.769Z,5.57
2022-09-12T22:08:49.379Z,5.57
2022-09-12T22:11:19.775Z,5.50
2022-09-12T22:13:48.357Z,5.55
2022-09-12T22:16:17.722Z,4.93
2022-09-12T22:18:47.354Z,5.97
2022-09-12T22:21:19.887Z,5.35
2022-09-12T22:24:06.131Z,5.90
2022-09-12T22:26:43.641Z,5.38
2022-09-12T22:29:13.263Z,5.30
2022-09-12T22:31:42.421Z,4.93
2022-09-12T22:34:10.969Z,5.25
2022-09-12T22:36:41.281Z,5.10
2022-09-12T22:39:09.832Z,5.28
2022-09-12T22:41:39.132Z,4.65
2022-09-12T22:44:08.140Z,5.50
2022-09-12T22:46:36.804Z,5.78
2022-09-12T22:49:05.686Z,5.07
2022-09-12T22:51:34.858Z,5.72
2022-09-12T22:54:05.666Z,5.50
2022-09-12T22:56:34.926Z,5.50
2022-09-12T22:59:03.261Z,6.35
2022-09-12T23:01:33.202Z,7.50
2022-09-12T23:04:01.736Z,7.60
2022-09-12T23:06:31.347Z,6.95
2022-09-12T23:09:00.042Z,7.68
2022-09-12T23:11:29.722Z,7.88
2022-09-12T23:13:58.994Z,7.43
2022-09-12T23:16:28.381Z,6.35
2022-09-12T23:18:57.186Z,6.75
2022-09-12T23:21:25.535Z,5.95
2022-09-12T23:23:56.194Z,6.43
2022-09-12T23:26:28.140Z,12.13
2022-09-12T23:29:00.423Z,12.90
2022-09-12T23:31:31.265Z,10.40
2022-09-12T23:34:01.894Z,10.05
2022-09-12T23:36:30.669Z,9.65
2022-09-12T23:38:59.433Z,8.82
2022-09-12T23:41:28.357Z,9.40
2022-09-12T23:43:58.111Z,8.55
2022-09-12T23:46:26.443Z,8.00
2022-09-12T23:48:55.162Z,7.72
2022-09-12T23:51:23.490Z,8.45
2022-09-12T23:53:52.770Z,8.07
2022-09-12T23:56:22.267Z,7.93
2022-09-12T23:58:51.226Z,7.03
